createdAt,value
2022-12-01T00:01:52.244Z,97441.89
2022-12-01T00:04:21.109Z,97439.80
2022-12-01T00:06:52.119Z,97438.63
2022-12-01T00:09:39.171Z,97439.53
2022-12-01T00:12:07.650Z,97441.31
2022-12-01T00:14:36.179Z,97444.34
2022-12-01T00:17:05.597Z,97443.89
2022-12-01T00:19:34.255Z,97445.08
2022-12-01T00:22:03.019Z,97444.50
2022-12-01T00:24:34.309Z,97447.26
2022-12-01T00:27:02.781Z,97447.20
2022-12-01T00:29:30.986Z,97443.06
2022-12-01T00:31:59.262Z,97446.83
2022-12-01T00:34:28.384Z,97445.92
2022-12-01T00:36:56.724Z,97446.23
2022-12-01T00:39:33.237Z,97443.02
2022-12-01T00:42:11.613Z,97444.63
2022-12-01T00:44:41.568Z,97445.94
2022-12-01T00:47:22.909Z,97449.48
2022-12-01T00:49:52.465Z,97452.06
2022-12-01T00:52:21.520Z,97454.16
2022-12-01T00:54:56.418Z,97451.77
2022-12-01T00:57:25.179Z,97450.86
2022-12-01T00:59:53.506Z,97450.36
2022-12-01T01:02:22.137Z,97450.22
2022-12-01T01:04:51.039Z,97452.95
2022-12-01T01:07:20.496Z,97450.17
2022-12-01T01:09:49.687Z,97447.91
2022-12-01T01:12:18.639Z,97448.64
2022-12-01T01:14:47.552Z,97450.83
2022-12-01T01:17:18.351Z,97450.08
2022-12-01T01:19:47.009Z,97445.35
2022-12-01T01:22:17.172Z,97439.75
2022-12-01T01:24:45.752Z,97438.10
2022-12-01T01:27:14.569Z,97436.02
2022-12-01T01:29:43.578Z,97435.59
2022-12-01T01:32:31.643Z,97426.60
2022-12-01T01:34:59.993Z,97425.98
2022-12-01T01:37:28.414Z,97422.75
2022-12-01T01:39:56.922Z,97424.48
2022-12-01T01:42:28.360Z,97426.84
2022-12-01T01:44:58.982Z,97425.19
2022-12-01T01:47:32.529Z,97423.65
2022-12-01T01:50:08.757Z,97423.73
2022-12-01T01:52:46.561Z,97425.38
2022-12-01T01:55:15.467Z,97425.29
2022-12-01T01:57:47.273Z,97425.35
2022-12-01T02:00:20.853Z,97423.98
2022-12-01T02:02:51.168Z,97422.95
2022-12-01T02:05:28.128Z,97426.82
2022-12-01T02:07:59.535Z,97422.36
2022-12-01T02:10:34.213Z,97421.97
2022-12-01T02:13:46.630Z,97414.33
2022-12-01T02:16:26.319Z,97417.36
2022-12-01T02:19:19.772Z,97415.46
2022-12-01T02:22:18.851Z,97411.54
2022-12-01T02:24:47.087Z,97414.75
2022-12-01T02:27:54.117Z,97412.48
2022-12-01T02:30:54.426Z,97414.25
2022-12-01T02:34:04.003Z,97410.42
2022-12-01T02:36:50.689Z,97405.13
2022-12-01T02:39:29.495Z,97403.39
2022-12-01T02:42:38.211Z,97404.95
2022-12-01T02:45:13.516Z,97405.33
2022-12-01T02:47:45.025Z,97402.20
2022-12-01T02:50:13.908Z,97402.52
2022-12-01T02:52:43.174Z,97400.77
2022-12-01T02:55:13.167Z,97402.85
2022-12-01T02:57:41.418Z,97403.75
2022-12-01T03:00:16.281Z,97407.67
2022-12-01T03:03:13.761Z,97408.75
2022-12-01T03:06:24.312Z,97407.56
2022-12-01T03:08:52.316Z,97406.98
2022-12-01T03:11:33.791Z,97406.56
2022-12-01T03:14:25.107Z,97408.55
2022-12-01T03:16:54.540Z,97402.39
2022-12-01T03:19:22.583Z,97403.88
2022-12-01T03:22:02.955Z,97402.81
2022-12-01T03:24:33.146Z,97401.93
2022-12-01T03:27:04.037Z,97402.41
2022-12-01T03:29:54.807Z,97403.41
2022-12-01T03:32:32.424Z,97403.14
2022-12-01T03:35:07.001Z,97409.05
2022-12-01T03:37:57.498Z,97409.45
2022-12-01T03:40:27.414Z,97406.86
2022-12-01T03:43:03.079Z,97404.59
2022-12-01T03:45:41.130Z,97402.14
2022-12-01T03:48:09.391Z,97400.20
2022-12-01T03:50:56.807Z,97400.60
2022-12-01T03:53:32.535Z,97399.38
2022-12-01T03:56:05.460Z,97401.30
2022-12-01T03:58:41.098Z,97400.09
2022-12-01T04:01:10.230Z,97397.11
2022-12-01T04:03:41.095Z,97397.67
2022-12-01T04:06:09.170Z,97395.87
2022-12-01T04:08:37.864Z,97394.54
2022-12-01T04:11:32.170Z,97399.16
2022-12-01T04:14:00.763Z,97401.04
2022-12-01T04:16:28.956Z,97400.95
2022-12-01T04:18:57.238Z,97401.96
2022-12-01T04:21:25.474Z,97401.36
2022-12-01T04:24:02.884Z,97400.39
2022-12-01T04:26:33.886Z,97400.77
2022-12-01T04:29:05.504Z,97396.98
2022-12-01T04:31:33.740Z,97393.61
2022-12-01T04:34:02.399Z,97393.15
2022-12-01T04:36:32.584Z,97393.59
2022-12-01T04:39:01.419Z,97398.02
2022-12-01T04:41:29.610Z,97395.61
2022-12-01T04:43:57.735Z,97395.14
2022-12-01T04:46:26.434Z,97395.74
2022-12-01T04:48:54.889Z,97395.14
2022-12-01T04:51:23.187Z,97397.73
2022-12-01T04:53:51.336Z,97397.19
2022-12-01T04:56:19.526Z,97402.65
2022-12-01T04:58:47.686Z,97400.61
2022-12-01T05:01:18.245Z,97403.15
2022-12-01T05:03:51.322Z,97404.50
2022-12-01T05:06:29.000Z,97403.01
2022-12-01T05:08:59.445Z,97404.02
2022-12-01T05:11:31.956Z,97404.54
2022-12-01T05:14:00.396Z,97403.18
2022-12-01T05:16:32.572Z,97403.52
2022-12-01T05:19:22.390Z,97402.08
2022-12-01T05:21:51.023Z,97403.98
2022-12-01T05:24:20.667Z,97400.08
2022-12-01T05:26:48.932Z,97401.44
2022-12-01T05:29:17.800Z,97397.73
2022-12-01T05:31:47.054Z,97400.12
2022-12-01T05:34:15.348Z,97397.63
2022-12-01T05:36:43.415Z,97400.50
2022-12-01T05:39:11.475Z,97405.17
2022-12-01T05:41:39.589Z,97405.04
2022-12-01T05:44:07.659Z,97403.60
2022-12-01T05:46:35.676Z,97404.02
2022-12-01T05:49:04.044Z,97405.81
2022-12-01T05:51:32.244Z,97404.55
2022-12-01T05:54:00.796Z,97409.59
2022-12-01T05:56:29.393Z,97409.75
2022-12-01T05:58:57.857Z,97413.98
2022-12-01T06:01:25.921Z,97412.58
2022-12-01T06:03:54.971Z,97415.73
2022-12-01T06:06:23.140Z,97417.91
2022-12-01T06:08:51.171Z,97415.65
2022-12-01T06:11:19.280Z,97417.20
2022-12-01T06:13:47.514Z,97418.96
2022-12-01T06:16:15.847Z,97412.84
2022-12-01T06:18:44.138Z,97415.29
2022-12-01T06:21:12.289Z,97413.14
2022-12-01T06:23:40.404Z,97407.78
2022-12-01T06:26:08.791Z,97409.36
2022-12-01T06:28:36.959Z,97412.77
2022-12-01T06:31:05.211Z,97410.89
2022-12-01T06:33:33.349Z,97412.45
2022-12-01T06:36:03.666Z,97412.30
2022-12-01T06:38:34.475Z,97411.70
2022-12-01T06:41:03.666Z,97407.94
2022-12-01T06:43:31.945Z,97409.97
2022-12-01T06:46:02.744Z,97410.61
2022-12-01T06:48:31.739Z,97409.33
2022-12-01T06:51:01.321Z,97412.07
2022-12-01T06:53:29.768Z,97409.94
2022-12-01T06:56:01.746Z,97409.45
2022-12-01T06:58:31.131Z,97410.39
2022-12-01T07:00:59.918Z,97410.30
2022-12-01T07:03:28.048Z,97408.55
2022-12-01T07:05:59.170Z,97405.98
2022-12-01T07:08:29.317Z,97407.06
2022-12-01T07:11:03.040Z,97409.80
2022-12-01T07:13:33.889Z,97406.27
2022-12-01T07:16:03.558Z,97411.02
2022-12-01T07:18:33.072Z,97406.89
2022-12-01T07:21:02.419Z,97409.30
2022-12-01T07:23:31.260Z,97408.77
2022-12-01T07:26:00.369Z,97406.71
2022-12-01T07:28:29.405Z,97407.25
2022-12-01T07:31:15.688Z,97407.27
2022-12-01T07:33:44.257Z,97406.02
2022-12-01T07:36:13.483Z,97406.75
2022-12-01T07:38:42.315Z,97407.72
2022-12-01T07:41:15.732Z,97407.83
2022-12-01T07:43:46.903Z,97409.70
2022-12-01T07:46:25.079Z,97402.20
2022-12-01T07:48:55.198Z,97406.73
2022-12-01T07:51:24.584Z,97404.61
2022-12-01T07:53:54.520Z,97398.80
2022-12-01T07:56:23.696Z,97398.59
2022-12-01T07:58:51.751Z,97397.02
2022-12-01T08:01:21.618Z,97395.33
2022-12-01T08:03:51.759Z,97393.56
2022-12-01T08:06:21.287Z,97391.63
2022-12-01T08:08:50.457Z,97387.37
2022-12-01T08:11:21.312Z,97388.70
2022-12-01T08:13:50.616Z,97387.75
2022-12-01T08:16:21.339Z,97382.66
2022-12-01T08:18:51.265Z,97384.52
2022-12-01T08:21:22.355Z,97382.38
2022-12-01T08:23:58.314Z,97382.36
2022-12-01T08:26:27.429Z,97381.70
2022-12-01T08:28:55.645Z,97379.73
2022-12-01T08:31:27.262Z,97377.59
2022-12-01T08:33:56.492Z,97378.03
2022-12-01T08:36:25.100Z,97374.58
2022-12-01T08:38:55.834Z,97373.93
2022-12-01T08:41:26.185Z,97374.52
2022-12-01T08:43:59.086Z,97368.64
2022-12-01T08:46:32.295Z,97369.02
2022-12-01T08:49:01.625Z,97367.83
2022-12-01T08:51:30.293Z,97366.09
2022-12-01T08:53:59.859Z,97363.44
2022-12-01T08:56:34.842Z,97366.02
2022-12-01T08:59:03.758Z,97366.52
2022-12-01T09:01:33.168Z,97361.52
2022-12-01T09:04:06.633Z,97359.83
2022-12-01T09:06:41.371Z,97358.71
2022-12-01T09:09:16.486Z,97356.61
2022-12-01T09:11:46.324Z,97356.50
2022-12-01T09:14:18.083Z,97351.70
2022-12-01T09:16:50.091Z,97349.52
2022-12-01T09:19:24.035Z,97353.60
2022-12-01T09:21:53.594Z,97350.92
2022-12-01T09:24:21.830Z,97346.29
2022-12-01T09:26:49.900Z,97344.39
2022-12-01T09:29:18.928Z,97339.77
2022-12-01T09:31:47.415Z,97340.55
2022-12-01T09:34:19.092Z,97332.48
2022-12-01T09:36:48.282Z,97330.95
2022-12-01T09:39:19.190Z,97323.96
2022-12-01T09:41:56.965Z,97316.05
2022-12-01T09:44:51.914Z,97312.98
2022-12-01T09:47:30.333Z,97310.89
2022-12-01T09:50:16.590Z,97305.80
2022-12-01T09:52:49.597Z,97304.07
2022-12-01T09:55:21.248Z,97298.16
2022-12-01T09:57:52.337Z,97293.33
2022-12-01T10:00:29.004Z,97294.35
2022-12-01T10:03:13.151Z,97296.14
2022-12-01T10:06:18.669Z,97292.70
2022-12-01T10:08:41.842Z,97289.55
2022-12-01T10:11:33.171Z,97286.73
2022-12-01T10:14:04.232Z,97284.82
2022-12-01T10:16:43.138Z,97285.52
2022-12-01T10:19:18.425Z,97286.03
2022-12-01T10:22:13.117Z,97286.44
2022-12-01T10:24:59.477Z,97277.55
2022-12-01T10:27:39.646Z,97277.22
2022-12-01T10:30:15.650Z,97276.10
2022-12-01T10:32:58.134Z,97274.79
2022-12-01T10:35:36.114Z,97268.59
2022-12-01T10:38:07.416Z,97270.13
2022-12-01T10:40:35.867Z,97270.20
2022-12-01T10:43:05.095Z,97274.52
2022-12-01T10:45:40.813Z,97271.02
2022-12-01T10:48:16.715Z,97269.19
2022-12-01T10:50:47.596Z,97268.34
2022-12-01T10:53:21.797Z,97262.23
2022-12-01T10:55:56.409Z,97259.43
2022-12-01T10:58:25.077Z,97257.19
2022-12-01T11:01:04.244Z,97254.05
2022-12-01T11:03:35.213Z,97251.54
2022-12-01T11:06:06.244Z,97249.41
2022-12-01T11:08:47.209Z,97249.33
2022-12-01T11:11:36.547Z,97245.40
2022-12-01T11:14:22.871Z,97242.18
2022-12-01T11:16:53.976Z,97243.01
2022-12-01T11:19:34.982Z,97243.02
2022-12-01T11:22:24.222Z,97237.81
2022-12-01T11:24:55.264Z,97234.54
2022-12-01T11:27:26.785Z,97233.06
2022-12-01T11:29:57.836Z,97230.59
2022-12-01T11:32:57.053Z,97231.42
2022-12-01T11:35:30.361Z,97229.85
2022-12-01T11:40:54.143Z,97225.73
2022-12-01T11:43:23.312Z,97224.10
2022-12-01T11:45:53.521Z,97222.31
2022-12-01T11:48:27.845Z,97228.16
2022-12-01T11:51:17.958Z,97222.51
2022-12-01T11:53:46.338Z,97219.16
2022-12-01T11:56:17.388Z,97220.01
2022-12-01T11:58:48.231Z,97220.98
2022-12-01T12:01:20.541Z,97216.91
2022-12-01T12:03:56.486Z,97215.98
2022-12-01T12:06:54.374Z,97218.14
2022-12-01T12:09:52.081Z,97218.40
2022-12-01T12:12:42.297Z,97215.90
2022-12-01T12:15:42.116Z,97212.43
2022-12-01T12:18:37.937Z,97207.27
2022-12-01T12:21:44.424Z,97209.88
2022-12-01T12:24:27.981Z,97206.59
2022-12-01T12:27:19.935Z,97206.84
2022-12-01T12:30:21.181Z,97205.27
2022-12-01T12:33:20.071Z,97203.90
2022-12-01T12:36:04.856Z,97200.38
2022-12-01T12:38:48.009Z,97204.77
2022-12-01T12:41:53.920Z,97203.52
2022-12-01T12:44:50.079Z,97205.45
2022-12-01T12:47:47.813Z,97204.95
2022-12-01T12:50:25.000Z,97200.67
2022-12-01T12:53:00.080Z,97197.63
2022-12-01T12:55:37.259Z,97198.52
2022-12-01T12:58:20.488Z,97204.59
2022-12-01T13:01:04.269Z,97203.89
2022-12-01T13:03:54.130Z,97203.56
2022-12-01T13:06:37.285Z,97207.59
2022-12-01T13:09:15.388Z,97213.63
2022-12-01T13:11:53.319Z,97211.76
2022-12-01T13:14:42.647Z,97205.80
2022-12-01T13:17:37.151Z,97205.46
2022-12-01T13:20:06.927Z,97211.55
2022-12-01T13:22:37.160Z,97208.55
2022-12-01T13:25:06.038Z,97206.84
2022-12-01T13:27:41.147Z,97209.23
2022-12-01T13:30:22.269Z,97204.27
2022-12-01T13:33:00.804Z,97209.91
2022-12-01T13:35:39.775Z,97206.46
2022-12-01T13:38:18.058Z,97211.02
2022-12-01T13:40:49.478Z,97211.73
2022-12-01T13:43:21.246Z,97209.44
2022-12-01T13:45:50.228Z,97210.02
2022-12-01T13:48:36.937Z,97210.50
2022-12-01T13:51:07.160Z,97206.91
2022-12-01T13:53:37.845Z,97205.68
2022-12-01T13:56:15.387Z,97207.38
2022-12-01T13:58:45.630Z,97204.57
2022-12-01T14:01:19.751Z,97206.05
2022-12-01T14:04:01.453Z,97205.58
2022-12-01T14:06:52.004Z,97209.35
2022-12-01T14:09:24.211Z,97208.16
2022-12-01T14:12:00.495Z,97213.80
2022-12-01T14:14:37.807Z,97213.86
2022-12-01T14:17:06.527Z,97216.74
2022-12-01T14:19:37.041Z,97218.80
2022-12-01T14:22:07.975Z,97222.39
2022-12-01T14:24:43.699Z,97224.64
2022-12-01T14:27:14.250Z,97222.64
2022-12-01T14:29:43.982Z,97224.39
2022-12-01T14:32:16.966Z,97228.98
2022-12-01T14:34:49.835Z,97233.66
2022-12-01T14:37:21.192Z,97237.15
2022-12-01T14:39:49.615Z,97236.89
2022-12-01T14:42:52.025Z,97234.13
2022-12-01T14:45:27.566Z,97227.56
2022-12-01T14:48:05.036Z,97225.91
2022-12-01T14:50:46.239Z,97220.04
2022-12-01T14:53:44.719Z,97222.88
2022-12-01T14:56:22.881Z,97220.86
2022-12-01T14:58:54.250Z,97225.95
2022-12-01T15:01:24.033Z,97217.95
2022-12-01T15:03:57.079Z,97221.34
2022-12-01T15:06:28.460Z,97226.98
2022-12-01T15:09:35.644Z,97228.68
2022-12-01T15:12:09.785Z,97229.98
2022-12-01T15:14:47.647Z,97228.85
2022-12-01T15:17:34.744Z,97229.54
2022-12-01T15:20:04.132Z,97231.66
2022-12-01T15:22:34.291Z,97229.56
2022-12-01T15:25:08.732Z,97230.86
2022-12-01T15:27:36.913Z,97234.00
2022-12-01T15:30:06.679Z,97233.36
2022-12-01T15:32:38.407Z,97236.42
2022-12-01T15:35:17.031Z,97236.48
2022-12-01T15:37:47.118Z,97234.08
2022-12-01T15:43:19.081Z,97243.09
2022-12-01T15:45:50.550Z,97243.06
2022-12-01T15:48:27.853Z,97245.61
2022-12-01T15:51:04.194Z,97247.95
2022-12-01T15:53:35.670Z,97251.09
2022-12-01T15:56:10.248Z,97247.73
2022-12-01T15:58:47.004Z,97248.52
2022-12-01T16:01:20.063Z,97249.92
2022-12-01T16:04:23.988Z,97252.54
2022-12-01T16:07:01.394Z,97251.75
2022-12-01T16:09:34.808Z,97251.36
2022-12-01T16:12:16.325Z,97249.89
2022-12-01T16:15:08.471Z,97248.48
2022-12-01T16:17:50.527Z,97247.98
2022-12-01T16:20:26.748Z,97250.73
2022-12-01T16:22:59.126Z,97252.27
2022-12-01T16:25:42.160Z,97255.27
2022-12-01T16:28:29.176Z,97254.08
2022-12-01T16:30:57.523Z,97255.33
2022-12-01T16:33:29.383Z,97256.68
2022-12-01T16:36:00.283Z,97261.67
2022-12-01T16:38:30.190Z,97260.77
2022-12-01T16:41:02.052Z,97257.37
2022-12-01T16:43:32.073Z,97256.42
2022-12-01T16:46:03.725Z,97257.89
2022-12-01T16:48:34.273Z,97256.46
2022-12-01T16:51:04.953Z,97261.46
2022-12-01T16:53:34.733Z,97261.95
2022-12-01T16:56:03.612Z,97262.05
2022-12-01T16:58:33.117Z,97262.29
2022-12-01T17:01:05.161Z,97260.30
2022-12-01T17:03:33.995Z,97260.27
2022-12-01T17:06:03.216Z,97264.52
2022-12-01T17:08:31.901Z,97265.30
2022-12-01T17:11:00.528Z,97268.45
2022-12-01T17:13:28.778Z,97269.51
2022-12-01T17:15:58.169Z,97268.09
2022-12-01T17:18:27.078Z,97265.48
2022-12-01T17:21:05.131Z,97268.48
2022-12-01T17:23:33.855Z,97266.53
2022-12-01T17:26:07.658Z,97268.56
2022-12-01T17:28:42.107Z,97271.19
2022-12-01T17:31:11.185Z,97274.63
2022-12-01T17:33:41.076Z,97276.87
2022-12-01T17:36:14.393Z,97281.01
2022-12-01T17:38:46.468Z,97281.45
2022-12-01T17:41:23.147Z,97283.17
2022-12-01T17:43:52.128Z,97284.45
2022-12-01T17:46:20.303Z,97286.39
2022-12-01T17:48:48.492Z,97285.95
2022-12-01T17:51:23.707Z,97287.30
2022-12-01T17:53:53.904Z,97289.04
2022-12-01T17:56:23.292Z,97288.61
2022-12-01T17:58:52.083Z,97284.45
2022-12-01T18:01:24.216Z,97286.98
2022-12-01T18:03:58.006Z,97290.48
2022-12-01T18:06:28.673Z,97291.70
2022-12-01T18:08:57.968Z,97296.20
2022-12-01T18:11:26.827Z,97293.88
2022-12-01T18:13:56.897Z,97295.19
2022-12-01T18:16:29.085Z,97292.86
2022-12-01T18:18:59.241Z,97293.34
2022-12-01T18:21:28.892Z,97292.46
2022-12-01T18:24:03.921Z,97296.44
2022-12-01T18:26:33.910Z,97296.86
2022-12-01T18:29:08.062Z,97299.52
2022-12-01T18:31:37.873Z,97304.77
2022-12-01T18:34:08.198Z,97304.48
2022-12-01T18:36:38.622Z,97303.39
2022-12-01T18:39:10.749Z,97300.42
2022-12-01T18:41:39.618Z,97301.19
2022-12-01T18:44:08.077Z,97296.72
2022-12-01T18:46:38.116Z,97297.45
2022-12-01T18:49:07.448Z,97301.19
2022-12-01T18:51:37.715Z,97301.98
2022-12-01T18:54:08.588Z,97302.89
2022-12-01T18:56:37.898Z,97300.80
2022-12-01T18:59:08.533Z,97302.30
2022-12-01T19:01:39.932Z,97305.65
2022-12-01T19:04:09.795Z,97301.85
2022-12-01T19:06:40.202Z,97300.73
2022-12-01T19:09:10.226Z,97299.04
2022-12-01T19:11:40.609Z,97298.98
2022-12-01T19:14:12.472Z,97298.84
2022-12-01T19:16:40.690Z,97300.11
2022-12-01T19:19:09.852Z,97295.79
2022-12-01T19:21:38.064Z,97295.73
2022-12-01T19:24:06.616Z,97295.61
2022-12-01T19:26:34.807Z,97291.92
2022-12-01T19:29:03.883Z,97294.30
2022-12-01T19:31:33.156Z,97296.45
2022-12-01T19:34:04.474Z,97296.10
2022-12-01T19:36:32.689Z,97297.91
2022-12-01T19:39:04.391Z,97297.29
2022-12-01T19:41:38.744Z,97294.10
2022-12-01T19:44:07.958Z,97294.10
2022-12-01T19:46:36.139Z,97293.50
2022-12-01T19:49:05.754Z,97293.86
2022-12-01T19:51:37.243Z,97294.61
2022-12-01T19:54:13.014Z,97295.58
2022-12-01T19:56:41.277Z,97298.25
2022-12-01T19:59:11.348Z,97298.64
2022-12-01T20:01:40.870Z,97290.52
2022-12-01T20:04:09.302Z,97295.77
2022-12-01T20:06:37.919Z,97295.92
2022-12-01T20:09:07.667Z,97291.56
2022-12-01T20:11:36.939Z,97295.04
2022-12-01T20:14:07.873Z,97293.36
2022-12-01T20:16:36.567Z,97289.52
2022-12-01T20:19:06.427Z,97290.91
2022-12-01T20:21:39.343Z,97286.23
2022-12-01T20:24:14.820Z,97283.81
2022-12-01T20:26:52.097Z,97282.16
2022-12-01T20:29:24.960Z,97285.47
2022-12-01T20:31:55.216Z,97285.77
2022-12-01T20:34:28.051Z,97286.72
2022-12-01T20:36:56.874Z,97284.71
2022-12-01T20:39:27.072Z,97290.08
2022-12-01T20:41:55.239Z,97286.33
2022-12-01T20:44:23.309Z,97287.54
2022-12-01T20:46:51.477Z,97294.84
2022-12-01T20:49:20.374Z,97296.77
2022-12-01T20:51:49.817Z,97297.08
2022-12-01T20:54:28.345Z,97299.48
2022-12-01T20:56:58.516Z,97303.34
2022-12-01T20:59:26.949Z,97305.11
2022-12-01T21:01:55.225Z,97303.53
2022-12-01T21:04:24.228Z,97301.32
2022-12-01T21:06:56.066Z,97302.05
2022-12-01T21:09:24.921Z,97298.14
2022-12-01T21:12:12.042Z,97295.20
2022-12-01T21:14:46.970Z,97298.88
2022-12-01T21:17:35.715Z,97296.22
2022-12-01T21:20:40.815Z,97295.14
2022-12-01T21:23:15.480Z,97297.33
2022-12-01T21:25:44.867Z,97302.21
2022-12-01T21:28:24.851Z,97300.71
2022-12-01T21:31:07.806Z,97302.78
2022-12-01T21:33:37.113Z,97303.84
2022-12-01T21:36:18.974Z,97304.81
2022-12-01T21:38:50.535Z,97304.45
2022-12-01T21:41:27.095Z,97305.88
2022-12-01T21:44:00.285Z,97303.17
2022-12-01T21:46:28.517Z,97301.39
2022-12-01T21:48:56.959Z,97306.21
2022-12-01T21:51:26.039Z,97306.08
2022-12-01T21:53:56.808Z,97301.09
2022-12-01T21:56:28.383Z,97302.44
2022-12-01T21:59:02.707Z,97302.88
2022-12-01T22:01:32.322Z,97303.95
2022-12-01T22:04:05.962Z,97302.03
2022-12-01T22:06:43.190Z,97296.41
2022-12-01T22:09:29.231Z,97300.71
2022-12-01T22:12:16.114Z,97295.77
2022-12-01T22:14:44.095Z,97294.70
2022-12-01T22:17:19.861Z,97296.44
2022-12-01T22:20:20.919Z,97293.54
2022-12-01T22:22:48.983Z,97292.03
2022-12-01T22:25:26.948Z,97291.41
2022-12-01T22:27:56.146Z,97287.00
2022-12-01T22:30:24.922Z,97285.50
2022-12-01T22:32:59.463Z,97289.94
2022-12-01T22:35:33.060Z,97288.75
2022-12-01T22:38:07.136Z,97291.40
2022-12-01T22:40:43.491Z,97294.31
2022-12-01T22:43:17.583Z,97289.87
2022-12-01T22:45:49.527Z,97288.82
2022-12-01T22:48:43.659Z,97288.81
2022-12-01T22:51:26.140Z,97282.96
2022-12-01T22:54:22.098Z,97280.62
2022-12-01T22:56:55.796Z,97278.54
2022-12-01T22:59:38.496Z,97279.09
2022-12-01T23:02:27.244Z,97279.17
2022-12-01T23:04:59.129Z,97279.22
2022-12-01T23:07:33.643Z,97279.95
2022-12-01T23:10:17.087Z,97278.73
2022-12-01T23:12:47.344Z,97280.11
2022-12-01T23:15:37.079Z,97273.08
2022-12-01T23:18:13.973Z,97275.48
2022-12-01T23:20:44.656Z,97272.67
2022-12-01T23:23:15.841Z,97272.52
2022-12-01T23:25:44.977Z,97273.13
2022-12-01T23:28:14.036Z,97275.21
2022-12-01T23:30:44.326Z,97279.46
2022-12-01T23:33:22.153Z,97280.37
2022-12-01T23:35:58.341Z,97283.16
2022-12-01T23:38:32.141Z,97280.86
2022-12-01T23:41:04.460Z,97281.81
2022-12-01T23:43:37.689Z,97277.64
2022-12-01T23:46:09.941Z,97276.61
2022-12-01T23:48:45.058Z,97274.67
2022-12-01T23:51:26.194Z,97277.39
2022-12-01T23:53:56.562Z,97275.96
2022-12-01T23:56:27.817Z,97274.21
2022-12-01T23:58:56.948Z,97276.06
